sensor_id;sensor_type;location;lat;lon;timestamp;pressure;altitude;pressure_sealevel;temperature;humidity
73748;BME280;62056;52.130;5.428;2023-05-06T00:00:11;101870.72;;;12.80;77.99
73748;BME280;62056;52.130;5.428;2023-05-06T00:02:38;101859.53;;;12.78;77.60
73748;BME280;62056;52.130;5.428;2023-05-06T00:05:05;101867.28;;;12.74;77.93
73748;BME280;62056;52.130;5.428;2023-05-06T00:07:32;101865.97;;;12.72;77.59
73748;BME280;62056;52.130;5.428;2023-05-06T00:09:59;101864.94;;;12.68;77.07
73748;BME280;62056;52.130;5.428;2023-05-06T00:12:25;101860.94;;;12.65;77.61
73748;BME280;62056;52.130;5.428;2023-05-06T00:14:52;101864.97;;;12.63;77.68
73748;BME280;62056;52.130;5.428;2023-05-06T00:17:18;101867.09;;;12.61;77.39
73748;BME280;62056;52.130;5.428;2023-05-06T00:19:45;101861.25;;;12.59;77.73
73748;BME280;62056;52.130;5.428;2023-05-06T00:22:12;101866.06;;;12.57;77.71
73748;BME280;62056;52.130;5.428;2023-05-06T00:24:39;101859.38;;;12.54;78.34
73748;BME280;62056;52.130;5.428;2023-05-06T00:27:06;101860.47;;;12.53;78.65
73748;BME280;62056;52.130;5.428;2023-05-06T00:29:34;101865.81;;;12.53;78.67
73748;BME280;62056;52.130;5.428;2023-05-06T00:32:00;101861.53;;;12.52;78.49
73748;BME280;62056;52.130;5.428;2023-05-06T00:34:27;101860.72;;;12.51;78.64
73748;BME280;62056;52.130;5.428;2023-05-06T00:36:54;101862.59;;;12.51;77.82
73748;BME280;62056;52.130;5.428;2023-05-06T00:39:48;101861.53;;;12.52;77.94
73748;BME280;62056;52.130;5.428;2023-05-06T00:42:15;101852.72;;;12.51;78.64
73748;BME280;62056;52.130;5.428;2023-05-06T00:44:41;101852.72;;;12.51;78.37
73748;BME280;62056;52.130;5.428;2023-05-06T00:47:08;101841.78;;;12.53;79.34
73748;BME280;62056;52.130;5.428;2023-05-06T00:49:35;101849.28;;;12.51;78.38
73748;BME280;62056;52.130;5.428;2023-05-06T00:52:02;101854.59;;;12.51;78.86
73748;BME280;62056;52.130;5.428;2023-05-06T00:54:29;101850.31;;;12.50;79.23
73748;BME280;62056;52.130;5.428;2023-05-06T00:56:56;101855.66;;;12.50;79.42
73748;BME280;62056;52.130;5.428;2023-05-06T00:59:23;101863.41;;;12.51;79.00
73748;BME280;62056;52.130;5.428;2023-05-06T01:01:49;101850.06;;;12.51;79.63
73748;BME280;62056;52.130;5.428;2023-05-06T01:04:17;101845.00;;;12.50;78.85
73748;BME280;62056;52.130;5.428;2023-05-06T01:06:44;101847.41;;;12.51;78.95
73748;BME280;62056;52.130;5.428;2023-05-06T01:09:23;101851.94;;;12.51;80.73
73748;BME280;62056;52.130;5.428;2023-05-06T01:11:58;101842.31;;;12.50;80.31
73748;BME280;62056;52.130;5.428;2023-05-06T01:14:45;101845.28;;;12.48;81.23
73748;BME280;62056;52.130;5.428;2023-05-06T01:17:17;101839.94;;;12.48;80.04
73748;BME280;62056;52.130;5.428;2023-05-06T01:19:47;101838.06;;;12.49;80.02
73748;BME280;62056;52.130;5.428;2023-05-06T01:22:17;101839.66;;;12.50;79.92
73748;BME280;62056;52.130;5.428;2023-05-06T01:24:45;101838.06;;;12.49;80.69
73748;BME280;62056;52.130;5.428;2023-05-06T01:27:12;101846.06;;;12.49;80.69
73748;BME280;62056;52.130;5.428;2023-05-06T01:29:41;101840.22;;;12.47;80.20
73748;BME280;62056;52.130;5.428;2023-05-06T01:35:14;101831.72;;;12.40;82.10
73748;BME280;62056;52.130;5.428;2023-05-06T01:37:53;101818.91;;;12.37;81.77
73748;BME280;62056;52.130;5.428;2023-05-06T01:40:24;101825.59;;;12.34;81.12
73748;BME280;62056;52.130;5.428;2023-05-06T01:42:51;101824.28;;;12.31;80.84
73748;BME280;62056;52.130;5.428;2023-05-06T01:45:19;101825.63;;;12.29;80.44
73748;BME280;62056;52.130;5.428;2023-05-06T01:47:47;101823.50;;;12.26;81.04
73748;BME280;62056;52.130;5.428;2023-05-06T01:50:14;101828.59;;;12.22;80.34
73748;BME280;62056;52.130;5.428;2023-05-06T01:52:41;101823.81;;;12.19;80.78
73748;BME280;62056;52.130;5.428;2023-05-06T01:55:08;101824.88;;;12.18;80.73
73748;BME280;62056;52.130;5.428;2023-05-06T01:57:36;101835.25;;;12.14;80.57
73748;BME280;62056;52.130;5.428;2023-05-06T02:00:03;101836.09;;;12.10;80.79
73748;BME280;62056;52.130;5.428;2023-05-06T02:02:30;101838.53;;;12.06;80.65
73748;BME280;62056;52.130;5.428;2023-05-06T02:04:56;101837.72;;;12.01;80.83
73748;BME280;62056;52.130;5.428;2023-05-06T02:07:23;101836.41;;;11.98;80.83
73748;BME280;62056;52.130;5.428;2023-05-06T02:09:50;101837.72;;;11.95;80.63
73748;BME280;62056;52.130;5.428;2023-05-06T02:12:16;101834.53;;;11.93;80.68
73748;BME280;62056;52.130;5.428;2023-05-06T02:14:43;101832.16;;;11.92;81.05
73748;BME280;62056;52.130;5.428;2023-05-06T02:17:09;101845.75;;;11.90;81.06
73748;BME280;62056;52.130;5.428;2023-05-06T02:19:36;101852.41;;;11.88;80.83
73748;BME280;62056;52.130;5.428;2023-05-06T02:22:03;101851.03;;;11.85;80.70
73748;BME280;62056;52.130;5.428;2023-05-06T02:24:29;101848.66;;;11.84;81.18
73748;BME280;62056;52.130;5.428;2023-05-06T02:26:56;101843.88;;;11.81;81.35
73748;BME280;62056;52.130;5.428;2023-05-06T02:29:22;101857.47;;;11.74;80.85
73748;BME280;62056;52.130;5.428;2023-05-06T02:31:49;101853.47;;;11.71;80.75
73748;BME280;62056;52.130;5.428;2023-05-06T02:34:16;101846.84;;;11.69;81.03
73748;BME280;62056;52.130;5.428;2023-05-06T02:36:43;101846.31;;;11.67;81.16
73748;BME280;62056;52.130;5.428;2023-05-06T02:39:09;101850.81;;;11.66;80.90
73748;BME280;62056;52.130;5.428;2023-05-06T02:41:36;101843.38;;;11.63;81.11
73748;BME280;62056;52.130;5.428;2023-05-06T02:44:03;101844.72;;;11.61;81.07
73748;BME280;62056;52.130;5.428;2023-05-06T02:46:29;101841.50;;;11.59;81.32
73748;BME280;62056;52.130;5.428;2023-05-06T02:48:56;101854.56;;;11.55;80.38
73748;BME280;62056;52.130;5.428;2023-05-06T02:51:23;101844.16;;;11.53;81.22
73748;BME280;62056;52.130;5.428;2023-05-06T02:53:49;101849.75;;;11.52;81.15
73748;BME280;62056;52.130;5.428;2023-05-06T02:56:16;101845.78;;;11.49;81.50
73748;BME280;62056;52.130;5.428;2023-05-06T02:58:42;101848.72;;;11.48;81.30
73748;BME280;62056;52.130;5.428;2023-05-06T03:01:09;101849.25;;;11.45;81.62
73748;BME280;62056;52.130;5.428;2023-05-06T03:03:35;101846.31;;;11.41;81.18
73748;BME280;62056;52.130;5.428;2023-05-06T03:06:02;101851.91;;;11.40;81.04
73748;BME280;62056;52.130;5.428;2023-05-06T03:08:29;101853.22;;;11.37;81.11
73748;BME280;62056;52.130;5.428;2023-05-06T03:10:55;101848.97;;;11.36;80.98
73748;BME280;62056;52.130;5.428;2023-05-06T03:13:22;101846.84;;;11.33;81.43
73748;BME280;62056;52.130;5.428;2023-05-06T03:15:52;101847.13;;;11.31;81.66
73748;BME280;62056;52.130;5.428;2023-05-06T03:18:19;101837.78;;;11.29;81.57
73748;BME280;62056;52.130;5.428;2023-05-06T03:20:49;101835.41;;;11.27;82.27
73748;BME280;62056;52.130;5.428;2023-05-06T03:23:21;101834.03;;;11.25;81.59
73748;BME280;62056;52.130;5.428;2023-05-06T03:25:48;101831.13;;;11.21;81.40
73748;BME280;62056;52.130;5.428;2023-05-06T03:28:15;101834.06;;;11.20;81.42
73748;BME280;62056;52.130;5.428;2023-05-06T03:30:42;101836.19;;;11.18;81.54
73748;BME280;62056;52.130;5.428;2023-05-06T03:33:08;101834.56;;;11.17;81.48
73748;BME280;62056;52.130;5.428;2023-05-06T03:35:35;101834.56;;;11.17;81.56
73748;BME280;62056;52.130;5.428;2023-05-06T03:38:02;101827.94;;;11.14;81.67
73748;BME280;62056;52.130;5.428;2023-05-06T03:40:28;101835.66;;;11.10;81.98
73748;BME280;62056;52.130;5.428;2023-05-06T03:43:04;101835.66;;;11.05;81.80
73748;BME280;62056;52.130;5.428;2023-05-06T03:45:31;101839.38;;;10.99;82.08
73748;BME280;62056;52.130;5.428;2023-05-06T03:47:57;101840.69;;;10.97;81.90
73748;BME280;62056;52.130;5.428;2023-05-06T03:50:24;101845.22;;;10.96;81.56
73748;BME280;62056;52.130;5.428;2023-05-06T03:52:51;101837.50;;;10.94;81.88
73748;BME280;62056;52.130;5.428;2023-05-06T03:55:18;101844.16;;;10.92;81.50
73748;BME280;62056;52.130;5.428;2023-05-06T03:57:44;101840.13;;;10.89;82.16
73748;BME280;62056;52.130;5.428;2023-05-06T04:00:11;101843.09;;;10.88;81.55
73748;BME280;62056;52.130;5.428;2023-05-06T04:02:38;101841.22;;;10.88;81.72
73748;BME280;62056;52.130;5.428;2023-05-06T04:05:05;101838.28;;;10.90;82.38
73748;BME280;62056;52.130;5.428;2023-05-06T04:07:33;101839.88;;;10.91;82.15
73748;BME280;62056;52.130;5.428;2023-05-06T04:09:59;101838.28;;;10.90;81.70
73748;BME280;62056;52.130;5.428;2023-05-06T04:12:26;101848.66;;;10.91;82.07
73748;BME280;62056;52.130;5.428;2023-05-06T04:14:53;101843.63;;;10.90;82.01
73748;BME280;62056;52.130;5.428;2023-05-06T04:17:19;101847.59;;;10.87;82.52
73748;BME280;62056;52.130;5.428;2023-05-06T04:19:46;101837.22;;;10.86;83.01
73748;BME280;62056;52.130;5.428;2023-05-06T04:22:12;101840.69;;;10.86;82.77
73748;BME280;62056;52.130;5.428;2023-05-06T04:25:07;101830.81;;;10.87;82.70
73748;BME280;62056;52.130;5.428;2023-05-06T04:27:34;101835.09;;;10.88;82.91
73748;BME280;62056;52.130;5.428;2023-05-06T04:30:01;101834.81;;;10.89;83.23
73748;BME280;62056;52.130;5.428;2023-05-06T04:32:27;101831.91;;;10.91;82.84
73748;BME280;62056;52.130;5.428;2023-05-06T04:34:54;101845.75;;;10.93;83.59
73748;BME280;62056;52.130;5.428;2023-05-06T04:37:22;101840.41;;;10.93;83.54
73748;BME280;62056;52.130;5.428;2023-05-06T04:39:48;101855.03;;;10.96;83.64
73748;BME280;62056;52.130;5.428;2023-05-06T04:42:15;101856.38;;;10.93;83.50
73748;BME280;62056;52.130;5.428;2023-05-06T04:44:42;101864.91;;;10.90;82.58
73748;BME280;62056;52.130;5.428;2023-05-06T04:47:08;101859.56;;;10.85;82.59
73748;BME280;62056;52.130;5.428;2023-05-06T04:49:35;101865.13;;;10.83;83.33
73748;BME280;62056;52.130;5.428;2023-05-06T04:52:02;101866.50;;;10.86;83.49
73748;BME280;62056;52.130;5.428;2023-05-06T04:54:29;101861.41;;;10.89;83.25
73748;BME280;62056;52.130;5.428;2023-05-06T04:56:56;101870.75;;;10.92;83.99
73748;BME280;62056;52.130;5.428;2023-05-06T04:59:22;101873.97;;;10.94;84.17
73748;BME280;62056;52.130;5.428;2023-05-06T05:01:49;101876.09;;;10.97;83.85
73748;BME280;62056;52.130;5.428;2023-05-06T05:04:16;101877.16;;;11.01;84.06
73748;BME280;62056;52.130;5.428;2023-05-06T05:06:42;101879.81;;;11.01;83.36
73748;BME280;62056;52.130;5.428;2023-05-06T05:09:09;101883.56;;;11.00;84.04
73748;BME280;62056;52.130;5.428;2023-05-06T05:11:36;101884.59;;;10.99;84.56
73748;BME280;62056;52.130;5.428;2023-05-06T05:14:03;101884.59;;;10.99;83.98
73748;BME280;62056;52.130;5.428;2023-05-06T05:16:30;101887.00;;;11.01;84.04
73748;BME280;62056;52.130;5.428;2023-05-06T05:18:57;101900.59;;;11.04;84.78
73748;BME280;62056;52.130;5.428;2023-05-06T05:21:26;101895.28;;;11.09;85.18
73748;BME280;62056;52.130;5.428;2023-05-06T05:23:53;101888.38;;;11.13;85.78
73748;BME280;62056;52.130;5.428;2023-05-06T05:26:20;101894.50;;;11.24;86.03
73748;BME280;62056;52.130;5.428;2023-05-06T05:28:47;101893.72;;;11.34;86.03
73748;BME280;62056;52.130;5.428;2023-05-06T05:31:13;101885.72;;;11.44;86.84
73748;BME280;62056;52.130;5.428;2023-05-06T05:33:40;101891.31;;;11.53;86.56
73748;BME280;62056;52.130;5.428;2023-05-06T05:36:06;101895.03;;;11.62;87.26
73748;BME280;62056;52.130;5.428;2023-05-06T05:38:33;101891.84;;;11.70;86.94
73748;BME280;62056;52.130;5.428;2023-05-06T05:41:00;101891.59;;;11.77;86.83
73748;BME280;62056;52.130;5.428;2023-05-06T05:43:26;101889.44;;;11.84;87.29
73748;BME280;62056;52.130;5.428;2023-05-06T05:45:53;101894.78;;;11.89;87.16
73748;BME280;62056;52.130;5.428;2023-05-06T05:48:19;101891.31;;;11.94;87.59
73748;BME280;62056;52.130;5.428;2023-05-06T05:50:46;101897.44;;;12.00;87.73
73748;BME280;62056;52.130;5.428;2023-05-06T05:53:12;101893.16;;;12.04;87.38
73748;BME280;62056;52.130;5.428;2023-05-06T05:55:39;101896.88;;;12.08;87.17
73748;BME280;62056;52.130;5.428;2023-05-06T05:58:05;101894.47;;;12.11;86.92
73748;BME280;62056;52.130;5.428;2023-05-06T06:00:32;101892.09;;;12.15;87.36
73748;BME280;62056;52.130;5.428;2023-05-06T06:02:59;101902.19;;;12.18;87.10
73748;BME280;62056;52.130;5.428;2023-05-06T06:05:26;101898.72;;;12.23;87.25
73748;BME280;62056;52.130;5.428;2023-05-06T06:07:52;101903.50;;;12.26;86.85
73748;BME280;62056;52.130;5.428;2023-05-06T06:10:19;101897.63;;;12.29;87.85
73748;BME280;62056;52.130;5.428;2023-05-06T06:12:46;101894.44;;;12.32;87.12
73748;BME280;62056;52.130;5.428;2023-05-06T06:15:12;101901.88;;;12.35;87.15
73748;BME280;62056;52.130;5.428;2023-05-06T06:17:39;101897.06;;;12.37;87.42
73748;BME280;62056;52.130;5.428;2023-05-06T06:20:07;101895.44;;;12.41;87.27
73748;BME280;62056;52.130;5.428;2023-05-06T06:22:34;101905.59;;;12.44;86.92
73748;BME280;62056;52.130;5.428;2023-05-06T06:25:01;101896.25;;;12.47;87.03
73748;BME280;62056;52.130;5.428;2023-05-06T06:27:27;101905.28;;;12.51;87.21
73748;BME280;62056;52.130;5.428;2023-05-06T06:29:54;101909.28;;;12.53;86.69
73748;BME280;62056;52.130;5.428;2023-05-06T06:32:21;101902.59;;;12.56;86.96
73748;BME280;62056;52.130;5.428;2023-05-06T06:34:47;101905.00;;;12.63;87.33
73748;BME280;62056;52.130;5.428;2023-05-06T06:37:14;101902.81;;;12.70;87.60
73748;BME280;62056;52.130;5.428;2023-05-06T06:39:40;101900.34;;;12.79;88.18
73748;BME280;62056;52.130;5.428;2023-05-06T06:42:07;101905.91;;;12.92;88.36
73748;BME280;62056;52.130;5.428;2023-05-06T06:44:34;101902.38;;;13.02;89.18
73748;BME280;62056;52.130;5.428;2023-05-06T06:47:01;101904.16;;;13.12;89.31
73748;BME280;62056;52.130;5.428;2023-05-06T06:49:29;101909.97;;;13.24;89.15
73748;BME280;62056;52.130;5.428;2023-05-06T06:51:56;101918.47;;;13.36;89.87
73748;BME280;62056;52.130;5.428;2023-05-06T06:54:23;101918.38;;;13.47;89.49
73748;BME280;62056;52.130;5.428;2023-05-06T06:56:53;101911.59;;;13.60;90.36
73748;BME280;62056;52.130;5.428;2023-05-06T06:59:21;101917.44;;;13.67;90.25
73748;BME280;62056;52.130;5.428;2023-05-06T07:01:48;101917.34;;;13.77;90.95
73748;BME280;62056;52.130;5.428;2023-05-06T07:04:14;101919.69;;;13.84;90.71
73748;BME280;62056;52.130;5.428;2023-05-06T07:06:41;101920.91;;;13.96;91.26
73748;BME280;62056;52.130;5.428;2023-05-06T07:09:08;101913.84;;;14.06;90.71
73748;BME280;62056;52.130;5.428;2023-05-06T07:11:35;101920.47;;;14.13;91.35
73748;BME280;62056;52.130;5.428;2023-05-06T07:14:02;101911.06;;;14.16;91.30
73748;BME280;62056;52.130;5.428;2023-05-06T07:16:29;101911.47;;;14.28;89.87
73748;BME280;62056;52.130;5.428;2023-05-06T07:18:55;101914.78;;;14.44;90.87
73748;BME280;62056;52.130;5.428;2023-05-06T07:21:22;101920.00;;;14.54;89.77
73748;BME280;62056;52.130;5.428;2023-05-06T07:23:48;101913.69;;;14.69;89.85
73748;BME280;62056;52.130;5.428;2023-05-06T07:26:15;101927.47;;;14.82;89.18
73748;BME280;62056;52.130;5.428;2023-05-06T07:28:42;101927.84;;;14.94;89.20
73748;BME280;62056;52.130;5.428;2023-05-06T07:31:09;101923.34;;;15.08;90.68
73748;BME280;62056;52.130;5.428;2023-05-06T07:33:36;101925.94;;;15.13;90.33
73748;BME280;62056;52.130;5.428;2023-05-06T07:36:03;101927.69;;;15.23;88.79
73748;BME280;62056;52.130;5.428;2023-05-06T07:38:30;101931.28;;;15.32;89.78
73748;BME280;62056;52.130;5.428;2023-05-06T07:40:56;101925.88;;;15.37;88.65
73748;BME280;62056;52.130;5.428;2023-05-06T07:43:23;101923.31;;;15.46;88.05
73748;BME280;62056;52.130;5.428;2023-05-06T07:45:50;101916.97;;;15.56;87.47
73748;BME280;62056;52.130;5.428;2023-05-06T07:48:17;101927.53;;;15.66;87.26
73748;BME280;62056;52.130;5.428;2023-05-06T07:50:45;101928.50;;;15.75;87.44
73748;BME280;62056;52.130;5.428;2023-05-06T07:53:12;101935.03;;;15.83;86.92
73748;BME280;62056;52.130;5.428;2023-05-06T07:55:39;101935.97;;;15.92;86.40
73748;BME280;62056;52.130;5.428;2023-05-06T07:58:05;101937.88;;;16.06;87.03
73748;BME280;62056;52.130;5.428;2023-05-06T08:00:32;101931.53;;;16.15;86.46
73748;BME280;62056;52.130;5.428;2023-05-06T08:02:59;101938.50;;;16.30;87.18
73748;BME280;62056;52.130;5.428;2023-05-06T08:05:26;101939.09;;;16.41;87.88
73748;BME280;62056;52.130;5.428;2023-05-06T08:07:52;101929.53;;;16.49;85.98
73748;BME280;62056;52.130;5.428;2023-05-06T08:10:19;101924.47;;;16.61;86.39
73748;BME280;62056;52.130;5.428;2023-05-06T08:12:47;101938.34;;;16.77;87.48
73748;BME280;62056;52.130;5.428;2023-05-06T08:15:14;101933.91;;;16.86;87.28
73748;BME280;62056;52.130;5.428;2023-05-06T08:17:41;101938.34;;;16.91;86.40
73748;BME280;62056;52.130;5.428;2023-05-06T08:20:09;101946.19;;;17.01;86.91
73748;BME280;62056;52.130;5.428;2023-05-06T08:22:36;101937.41;;;17.09;86.51
73748;BME280;62056;52.130;5.428;2023-05-06T08:25:02;101942.56;;;17.19;86.23
73748;BME280;62056;52.130;5.428;2023-05-06T08:27:29;101942.63;;;17.28;85.10
73748;BME280;62056;52.130;5.428;2023-05-06T08:29:56;101944.16;;;17.43;83.52
73748;BME280;62056;52.130;5.428;2023-05-06T08:32:23;101943.31;;;17.56;84.30
73748;BME280;62056;52.130;5.428;2023-05-06T08:34:50;101949.41;;;17.71;83.45
73748;BME280;62056;52.130;5.428;2023-05-06T08:37:16;101952.94;;;17.80;83.26
73748;BME280;62056;52.130;5.428;2023-05-06T08:39:43;101938.63;;;17.93;84.11
73748;BME280;62056;52.130;5.428;2023-05-06T08:42:10;101936.78;;;18.03;85.22
73748;BME280;62056;52.130;5.428;2023-05-06T08:44:38;101941.22;;;18.07;84.69
73748;BME280;62056;52.130;5.428;2023-05-06T08:47:04;101935.41;;;18.14;83.42
73748;BME280;62056;52.130;5.428;2023-05-06T08:49:31;101938.97;;;18.32;84.86
73748;BME280;62056;52.130;5.428;2023-05-06T08:52:01;101942.75;;;18.31;83.64
73748;BME280;62056;52.130;5.428;2023-05-06T08:54:32;101944.03;;;18.33;81.14
73748;BME280;62056;52.130;5.428;2023-05-06T08:57:02;101938.66;;;18.42;80.13
73748;BME280;62056;52.130;5.428;2023-05-06T08:59:29;101948.97;;;18.49;80.25
73748;BME280;62056;52.130;5.428;2023-05-06T09:02:02;101949.63;;;18.54;79.20
73748;BME280;62056;52.130;5.428;2023-05-06T09:04:29;101935.22;;;18.59;79.69
73748;BME280;62056;52.130;5.428;2023-05-06T09:06:57;101940.31;;;18.60;79.79
73748;BME280;62056;52.130;5.428;2023-05-06T09:09:24;101938.25;;;18.66;79.85
73748;BME280;62056;52.130;5.428;2023-05-06T09:11:51;101934.94;;;18.69;79.93
73748;BME280;62056;52.130;5.428;2023-05-06T09:14:20;101933.19;;;18.73;79.26
73748;BME280;62056;52.130;5.428;2023-05-06T09:16:49;101926.38;;;18.76;78.97
73748;BME280;62056;52.130;5.428;2023-05-06T09:19:17;101934.31;;;18.81;79.06
73748;BME280;62056;52.130;5.428;2023-05-06T09:21:47;101928.94;;;18.81;77.97
73748;BME280;62056;52.130;5.428;2023-05-06T09:24:14;101927.53;;;18.92;80.05
73748;BME280;62056;52.130;5.428;2023-05-06T09:26:43;101923.72;;;18.85;78.47
73748;BME280;62056;52.130;5.428;2023-05-06T09:29:10;101932.91;;;18.84;77.74
73748;BME280;62056;52.130;5.428;2023-05-06T09:31:42;101924.03;;;18.83;73.58
73748;BME280;62056;52.130;5.428;2023-05-06T09:34:10;101929.28;;;18.88;76.76
73748;BME280;62056;52.130;5.428;2023-05-06T09:36:37;101928.78;;;18.95;77.74
73748;BME280;62056;52.130;5.428;2023-05-06T09:39:04;101923.41;;;18.95;77.01
73748;BME280;62056;52.130;5.428;2023-05-06T09:41:31;101919.91;;;19.03;78.10
73748;BME280;62056;52.130;5.428;2023-05-06T09:43:58;101915.66;;;19.02;76.92
73748;BME280;62056;52.130;5.428;2023-05-06T09:46:26;101916.56;;;19.06;76.29
73748;BME280;62056;52.130;5.428;2023-05-06T09:48:55;101910.25;;;19.11;76.01
73748;BME280;62056;52.130;5.428;2023-05-06T09:51:25;101915.31;;;19.21;76.37
73748;BME280;62056;52.130;5.428;2023-05-06T09:53:52;101911.66;;;19.26;76.51
73748;BME280;62056;52.130;5.428;2023-05-06T09:56:19;101914.19;;;19.31;75.95
73748;BME280;62056;52.130;5.428;2023-05-06T09:58:47;101903.72;;;19.38;75.64
73748;BME280;62056;52.130;5.428;2023-05-06T10:01:15;101895.13;;;19.45;74.96
73748;BME280;62056;52.130;5.428;2023-05-06T10:04:04;101912.44;;;19.52;74.27
73748;BME280;62056;52.130;5.428;2023-05-06T10:06:35;101909.22;;;19.59;74.08
73748;BME280;62056;52.130;5.428;2023-05-06T10:09:06;101909.38;;;19.63;74.13
73748;BME280;62056;52.130;5.428;2023-05-06T10:11:34;101904.28;;;19.70;74.14
73748;BME280;62056;52.130;5.428;2023-05-06T10:14:01;101903.16;;;19.79;73.53
73748;BME280;62056;52.130;5.428;2023-05-06T10:16:29;101907.75;;;19.88;73.05
73748;BME280;62056;52.130;5.428;2023-05-06T10:18:57;101896.28;;;19.91;72.83
73748;BME280;62056;52.130;5.428;2023-05-06T10:21:26;101892.59;;;19.95;72.52
73748;BME280;62056;52.130;5.428;2023-05-06T10:23:58;101902.91;;;20.02;71.46
73748;BME280;62056;52.130;5.428;2023-05-06T10:26:28;101893.69;;;20.03;64.38
73748;BME280;62056;52.130;5.428;2023-05-06T10:29:00;101892.41;;;20.09;69.85
73748;BME280;62056;52.130;5.428;2023-05-06T10:31:29;101889.97;;;20.16;71.09
73748;BME280;62056;52.130;5.428;2023-05-06T10:34:24;101895.97;;;20.22;69.26
73748;BME280;62056;52.130;5.428;2023-05-06T10:36:55;101894.22;;;20.26;68.07
73748;BME280;62056;52.130;5.428;2023-05-06T10:39:23;101898.31;;;20.32;69.87
73748;BME280;62056;52.130;5.428;2023-05-06T10:41:50;101890.94;;;20.41;70.39
73748;BME280;62056;52.130;5.428;2023-05-06T10:44:17;101890.91;;;20.50;69.92
73748;BME280;62056;52.130;5.428;2023-05-06T10:47:03;101887.66;;;20.57;68.41
73748;BME280;62056;52.130;5.428;2023-05-06T10:49:31;101884.94;;;20.66;68.26
73748;BME280;62056;52.130;5.428;2023-05-06T10:52:10;101874.97;;;20.78;67.29
73748;BME280;62056;52.130;5.428;2023-05-06T10:54:49;101884.22;;;20.77;66.63
73748;BME280;62056;52.130;5.428;2023-05-06T10:57:16;101877.81;;;20.82;68.04
73748;BME280;62056;52.130;5.428;2023-05-06T10:59:45;101879.72;;;20.81;62.90
73748;BME280;62056;52.130;5.428;2023-05-06T11:02:12;101878.88;;;20.90;65.28
73748;BME280;62056;52.130;5.428;2023-05-06T11:04:40;101881.03;;;20.96;65.28
73748;BME280;62056;52.130;5.428;2023-05-06T11:07:12;101876.31;;;21.06;65.79
73748;BME280;62056;52.130;5.428;2023-05-06T11:10:00;101879.41;;;21.16;58.67
73748;BME280;62056;52.130;5.428;2023-05-06T11:12:47;101878.66;;;21.28;57.74
73748;BME280;62056;52.130;5.428;2023-05-06T11:15:20;101878.88;;;21.35;60.48
73748;BME280;62056;52.130;5.428;2023-05-06T11:17:47;101875.69;;;21.42;63.54
73748;BME280;62056;52.130;5.428;2023-05-06T11:20:24;101875.00;;;21.45;58.69
73748;BME280;62056;52.130;5.428;2023-05-06T11:22:52;101870.97;;;21.51;64.16
73748;BME280;62056;52.130;5.428;2023-05-06T11:28:09;101875.94;;;21.61;59.58
73748;BME280;62056;52.130;5.428;2023-05-06T11:30:39;101867.72;;;21.70;63.25
73748;BME280;62056;52.130;5.428;2023-05-06T11:33:07;101870.88;;;21.72;62.20
73748;BME280;62056;52.130;5.428;2023-05-06T11:35:36;101862.41;;;21.74;62.40
73748;BME280;62056;52.130;5.428;2023-05-06T11:38:03;101873.81;;;21.79;61.72
73748;BME280;62056;52.130;5.428;2023-05-06T11:40:30;101871.56;;;21.81;61.60
73748;BME280;62056;52.130;5.428;2023-05-06T11:43:15;101861.75;;;21.89;58.38
73748;BME280;62056;52.130;5.428;2023-05-06T11:45:46;101864.81;;;21.88;57.87
73748;BME280;62056;52.130;5.428;2023-05-06T11:48:14;101858.38;;;21.92;60.60
73748;BME280;62056;52.130;5.428;2023-05-06T11:50:47;101857.34;;;21.97;58.32
73748;BME280;62056;52.130;5.428;2023-05-06T11:53:19;101852.50;;;22.02;60.55
73748;BME280;62056;52.130;5.428;2023-05-06T11:55:47;101852.50;;;22.02;60.22
73748;BME280;62056;52.130;5.428;2023-05-06T11:58:25;101860.50;;;22.11;60.88
73748;BME280;62056;52.130;5.428;2023-05-06T12:00:57;101855.88;;;22.12;59.95
73748;BME280;62056;52.130;5.428;2023-05-06T12:03:25;101860.63;;;22.15;59.79
73748;BME280;62056;52.130;5.428;2023-05-06T12:05:52;101857.53;;;22.16;59.29
73748;BME280;62056;52.130;5.428;2023-05-06T12:08:23;101866.47;;;22.17;57.34
73748;BME280;62056;52.130;5.428;2023-05-06T12:10:56;101867.25;;;22.17;58.41
73748;BME280;62056;52.130;5.428;2023-05-06T12:13:23;101861.75;;;22.26;59.21
73748;BME280;62056;52.130;5.428;2023-05-06T12:15:52;101852.69;;;22.34;58.20
73748;BME280;62056;52.130;5.428;2023-05-06T12:18:21;101853.41;;;22.31;57.82
73748;BME280;62056;52.130;5.428;2023-05-06T12:20:48;101855.28;;;22.31;57.23
73748;BME280;62056;52.130;5.428;2023-05-06T12:23:52;101855.28;;;22.31;56.48
73748;BME280;62056;52.130;5.428;2023-05-06T12:26:20;101860.72;;;22.31;57.37
73748;BME280;62056;52.130;5.428;2023-05-06T12:29:11;101847.63;;;22.33;53.35
73748;BME280;62056;52.130;5.428;2023-05-06T12:31:39;101858.47;;;22.33;57.30
73748;BME280;62056;52.130;5.428;2023-05-06T12:34:05;101857.34;;;22.34;56.50
73748;BME280;62056;52.130;5.428;2023-05-06T12:36:38;101864.63;;;22.46;57.66
73748;BME280;62056;52.130;5.428;2023-05-06T12:39:04;101854.81;;;22.41;56.03
73748;BME280;62056;52.130;5.428;2023-05-06T12:41:44;101855.84;;;22.49;52.49
73748;BME280;62056;52.130;5.428;2023-05-06T12:44:37;101856.59;;;22.61;51.71
73748;BME280;62056;52.130;5.428;2023-05-06T12:47:08;101848.91;;;22.63;54.61
73748;BME280;62056;52.130;5.428;2023-05-06T12:49:49;101851.78;;;22.71;52.31
73748;BME280;62056;52.130;5.428;2023-05-06T12:52:19;101843.44;;;22.76;54.71
73748;BME280;62056;52.130;5.428;2023-05-06T12:54:47;101844.56;;;22.75;54.33
73748;BME280;62056;52.130;5.428;2023-05-06T12:57:14;101836.88;;;22.77;54.19
73748;BME280;62056;52.130;5.428;2023-05-06T12:59:42;101835.75;;;22.78;52.91
73748;BME280;62056;52.130;5.428;2023-05-06T13:02:11;101850.53;;;22.80;53.15